createdAt,value
2022-08-22T00:01:17.292Z,5.60
2022-08-22T00:02:45.442Z,4.30
2022-08-22T00:03:03.073Z,1.20
2022-08-22T00:03:08.817Z,5.00
2022-08-22T00:03:55.275Z,5.00
2022-08-22T00:06:45.383Z,5.20
2022-08-22T00:09:29.818Z,4.80
2022-08-22T00:14:37.934Z,5.50
2022-08-22T00:17:24.095Z,5.80
2022-08-22T00:20:17.232Z,6.40
2022-08-22T00:23:15.880Z,6.60
2022-08-22T00:26:03.110Z,6.50
2022-08-22T00:28:42.371Z,6.80
2022-08-22T00:31:35.514Z,6.80
2022-08-22T00:34:08.698Z,7.80
2022-08-22T00:36:51.486Z,6.30
2022-08-22T00:39:31.459Z,7.10
2022-08-22T00:42:15.262Z,6.80
2022-08-22T00:45:18.181Z,7.30
2022-08-22T00:47:51.664Z,6.90
2022-08-22T00:51:02.042Z,8.30
2022-08-22T00:53:35.948Z,7.80
2022-08-22T00:56:24.804Z,8.50
2022-08-22T00:59:00.663Z,7.40
2022-08-22T01:01:53.860Z,7.00
2022-08-22T01:05:09.758Z,7.90
2022-08-22T01:07:59.395Z,7.30
2022-08-22T01:10:38.823Z,7.80
2022-08-22T01:13:42.334Z,6.70
2022-08-22T01:16:30.375Z,7.10
2022-08-22T01:19:49.773Z,6.60
2022-08-22T01:22:39.000Z,7.30
2022-08-22T01:25:44.464Z,7.90
2022-08-22T01:28:31.364Z,7.50
2022-08-22T01:31:23.804Z,7.10
2022-08-22T01:34:42.608Z,6.40
2022-08-22T01:37:43.518Z,7.10
2022-08-22T01:40:27.235Z,8.30
2022-08-22T01:43:00.160Z,7.10
2022-08-22T01:45:42.543Z,7.40
2022-08-22T01:48:20.612Z,6.90
2022-08-22T01:50:54.882Z,7.20
2022-08-22T01:53:39.833Z,7.20
2022-08-22T01:56:15.813Z,7.10
2022-08-22T01:59:09.005Z,7.30
2022-08-22T02:02:01.764Z,6.60
2022-08-22T02:04:40.946Z,8.40
2022-08-22T02:07:48.311Z,7.50
2022-08-22T02:10:41.941Z,6.90
2022-08-22T02:13:13.115Z,6.80
2022-08-22T02:15:41.119Z,6.90
2022-08-22T02:18:20.980Z,8.00
2022-08-22T02:20:48.818Z,7.30
2022-08-22T02:23:45.927Z,6.40
2022-08-22T02:27:09.647Z,6.80
2022-08-22T02:29:47.095Z,7.10
2022-08-22T02:32:30.373Z,6.80
2022-08-22T02:35:02.105Z,8.20
2022-08-22T02:37:54.430Z,6.70
2022-08-22T02:40:37.730Z,9.00
2022-08-22T02:43:34.522Z,8.30
2022-08-22T02:46:14.751Z,7.20
2022-08-22T02:48:52.885Z,9.00
2022-08-22T02:51:44.814Z,9.90
2022-08-22T02:54:38.751Z,8.90
2022-08-22T02:57:15.076Z,9.90
2022-08-22T03:00:07.206Z,9.40
2022-08-22T03:03:22.014Z,9.00
2022-08-22T03:08:24.968Z,10.20
2022-08-22T03:11:16.957Z,12.00
2022-08-22T03:13:47.441Z,10.70
2022-08-22T03:16:38.159Z,9.90
2022-08-22T03:19:19.034Z,12.30
2022-08-22T03:21:59.702Z,12.80
2022-08-22T03:24:38.750Z,12.00
2022-08-22T03:27:31.440Z,10.60
2022-08-22T03:30:12.599Z,12.20
2022-08-22T03:32:55.322Z,11.60
2022-08-22T03:35:26.497Z,11.10
2022-08-22T03:38:09.027Z,11.20
2022-08-22T03:41:01.882Z,11.70
2022-08-22T03:43:29.703Z,12.20
2022-08-22T03:46:30.357Z,13.40
2022-08-22T03:49:19.960Z,12.90
2022-08-22T03:52:04.712Z,13.50
2022-08-22T03:54:50.359Z,14.20
2022-08-22T03:57:36.426Z,14.10
2022-08-22T04:00:12.015Z,13.90
2022-08-22T04:03:05.141Z,12.70
2022-08-22T04:06:04.205Z,13.30
2022-08-22T04:08:52.486Z,11.50
2022-08-22T04:12:02.705Z,10.30
2022-08-22T04:15:11.277Z,11.80
2022-08-22T04:17:39.078Z,12.20
2022-08-22T04:20:41.014Z,12.80
2022-08-22T04:23:24.648Z,12.20
2022-08-22T04:26:27.016Z,12.30
2022-08-22T04:29:03.074Z,12.50
2022-08-22T04:31:36.652Z,12.30
2022-08-22T04:34:43.340Z,12.80
2022-08-22T04:37:23.668Z,11.60
2022-08-22T04:39:56.694Z,15.00
2022-08-22T04:42:40.516Z,13.70
2022-08-22T04:45:16.654Z,12.70
2022-08-22T04:48:00.169Z,12.20
2022-08-22T04:50:43.194Z,11.60
2022-08-22T04:53:25.811Z,12.60
2022-08-22T04:56:07.987Z,13.10
2022-08-22T04:58:55.768Z,14.00
2022-08-22T05:01:45.004Z,13.00
2022-08-22T05:04:24.193Z,14.30
2022-08-22T05:07:03.107Z,14.30
2022-08-22T05:09:37.626Z,15.00
2022-08-22T05:12:12.235Z,13.30
2022-08-22T05:15:02.793Z,14.90
2022-08-22T05:17:32.674Z,12.70
2022-08-22T05:20:08.193Z,13.50
2022-08-22T05:22:43.985Z,13.70
2022-08-22T05:25:18.200Z,12.80
2022-08-22T05:27:53.257Z,12.50
2022-08-22T05:30:28.559Z,12.10
2022-08-22T05:33:00.051Z,12.80
2022-08-22T05:36:00.742Z,14.50
2022-08-22T05:38:32.283Z,14.10
2022-08-22T05:41:17.671Z,13.20
2022-08-22T05:43:48.635Z,13.30
2022-08-22T05:46:26.963Z,13.60
2022-08-22T05:49:02.670Z,13.70
2022-08-22T05:51:35.201Z,13.50
2022-08-22T05:54:12.854Z,12.50
2022-08-22T05:57:18.899Z,11.70
2022-08-22T05:59:52.790Z,13.00
2022-08-22T06:02:31.621Z,12.80
2022-08-22T06:05:02.668Z,12.50
2022-08-22T06:07:35.863Z,12.60
2022-08-22T06:10:23.059Z,13.40
2022-08-22T06:13:01.836Z,14.00
2022-08-22T06:15:43.067Z,14.90
2022-08-22T06:18:15.150Z,14.40
2022-08-22T06:20:47.981Z,15.20
2022-08-22T06:23:22.566Z,14.50
2022-08-22T06:25:52.594Z,14.50
2022-08-22T06:28:25.952Z,14.00
2022-08-22T06:30:56.324Z,16.10
2022-08-22T06:33:31.299Z,14.90
2022-08-22T06:36:25.199Z,14.10
2022-08-22T06:39:30.416Z,15.90
2022-08-22T06:42:15.882Z,16.00
2022-08-22T06:44:54.551Z,13.30
2022-08-22T06:47:49.900Z,14.80
2022-08-22T06:50:30.292Z,16.30
2022-08-22T06:53:27.378Z,14.70
2022-08-22T06:55:59.638Z,14.80
2022-08-22T06:58:34.145Z,14.90
2022-08-22T07:01:18.372Z,18.60
2022-08-22T07:03:51.282Z,15.30
2022-08-22T07:06:56.060Z,16.80
2022-08-22T07:09:32.135Z,19.60
2022-08-22T07:12:17.380Z,17.90
2022-08-22T07:14:50.525Z,15.30
2022-08-22T07:17:24.257Z,16.40
2022-08-22T07:19:58.048Z,15.90
2022-08-22T07:22:33.397Z,17.50
2022-08-22T07:25:09.346Z,19.60
2022-08-22T07:28:22.006Z,18.20
2022-08-22T07:31:25.226Z,16.60
2022-08-22T07:34:00.515Z,19.80
2022-08-22T07:36:59.723Z,20.20
2022-08-22T07:39:36.228Z,18.10
2022-08-22T07:42:18.965Z,21.40
2022-08-22T07:45:11.535Z,19.00
2022-08-22T07:48:26.342Z,22.30
2022-08-22T07:51:03.246Z,23.10
2022-08-22T07:53:43.102Z,20.80
2022-08-22T07:56:29.780Z,23.50
2022-08-22T07:59:14.763Z,20.80
2022-08-22T08:01:53.577Z,17.90
2022-08-22T08:04:40.215Z,19.70
2022-08-22T08:07:14.824Z,23.60
2022-08-22T08:10:13.036Z,26.20
2022-08-22T08:13:00.575Z,25.20
2022-08-22T08:15:35.132Z,22.40
2022-08-22T08:18:12.681Z,24.10
2022-08-22T08:20:40.888Z,24.40
2022-08-22T08:23:12.999Z,23.30
2022-08-22T08:26:13.402Z,21.90
2022-08-22T08:28:49.563Z,23.60
2022-08-22T08:31:26.961Z,24.70
2022-08-22T08:34:08.052Z,22.50
2022-08-22T08:36:48.338Z,22.20
2022-08-22T08:39:25.255Z,23.80
2022-08-22T08:42:23.617Z,23.80
2022-08-22T08:45:06.777Z,23.40
2022-08-22T08:47:52.814Z,25.00
2022-08-22T08:50:44.025Z,22.20
2022-08-22T08:53:27.208Z,21.30
2022-08-22T08:56:03.554Z,21.50
2022-08-22T08:58:40.541Z,17.80
2022-08-22T09:01:28.610Z,19.00
2022-08-22T09:04:15.689Z,20.90
2022-08-22T09:06:59.317Z,22.40
2022-08-22T09:09:52.386Z,19.60
2022-08-22T09:13:11.578Z,18.70
2022-08-22T09:15:58.527Z,20.30
2022-08-22T09:19:10.579Z,20.40
2022-08-22T09:22:50.030Z,17.00
2022-08-22T09:25:24.759Z,17.40
2022-08-22T09:28:02.558Z,19.10
2022-08-22T09:30:54.193Z,19.60
2022-08-22T09:33:34.267Z,17.80
2022-08-22T09:36:12.044Z,20.40
2022-08-22T09:39:31.185Z,17.90
2022-08-22T09:42:17.849Z,17.70
2022-08-22T09:44:54.505Z,18.40
2022-08-22T09:47:31.274Z,19.90
2022-08-22T09:50:24.846Z,19.60
2022-08-22T09:53:13.099Z,17.40
2022-08-22T09:56:15.187Z,19.80
2022-08-22T09:59:12.308Z,20.00
2022-08-22T10:01:42.760Z,20.50
2022-08-22T10:04:35.630Z,19.90
2022-08-22T10:07:26.134Z,21.40
2022-08-22T10:10:24.471Z,23.20
2022-08-22T10:13:14.457Z,21.30
2022-08-22T10:15:45.001Z,20.90
2022-08-22T10:18:44.057Z,21.60
2022-08-22T10:21:32.891Z,20.70
2022-08-22T10:24:34.130Z,22.60
2022-08-22T10:27:18.205Z,23.50
2022-08-22T10:29:54.207Z,25.00
2022-08-22T10:32:46.311Z,25.90
2022-08-22T10:35:33.952Z,23.70
2022-08-22T10:38:14.500Z,23.50
2022-08-22T10:40:56.224Z,23.10
2022-08-22T10:43:33.839Z,23.40
2022-08-22T10:46:12.513Z,22.00
2022-08-22T10:48:46.530Z,23.70
2022-08-22T10:51:20.645Z,22.50
2022-08-22T10:56:46.811Z,21.40
2022-08-22T10:59:30.050Z,20.00
2022-08-22T11:02:19.627Z,22.80
2022-08-22T11:05:15.421Z,22.00
2022-08-22T11:08:15.698Z,27.30
2022-08-22T11:10:52.194Z,20.40
2022-08-22T11:13:54.290Z,30.30
2022-08-22T11:16:28.459Z,39.30
2022-08-22T11:22:09.985Z,45.10
2022-08-22T11:25:14.379Z,20.80
2022-08-22T11:28:23.799Z,18.90
2022-08-22T11:31:25.376Z,15.90
2022-08-22T11:33:58.665Z,16.80
2022-08-22T11:36:40.379Z,17.70
2022-08-22T11:39:38.021Z,20.30
2022-08-22T11:42:29.517Z,19.00
2022-08-22T11:45:02.217Z,18.10
2022-08-22T11:47:48.022Z,18.80
2022-08-22T11:50:35.213Z,18.10
2022-08-22T11:53:25.014Z,15.90
2022-08-22T11:56:19.174Z,15.20
2022-08-22T11:59:43.133Z,15.50
2022-08-22T12:02:49.492Z,16.70
2022-08-22T12:05:26.125Z,17.70
2022-08-22T12:08:13.916Z,18.80
2022-08-22T12:11:19.531Z,27.20
2022-08-22T12:14:06.350Z,22.50
2022-08-22T12:16:47.789Z,18.70
2022-08-22T12:19:32.954Z,24.90
2022-08-22T12:22:40.534Z,24.50
2022-08-22T12:25:39.557Z,24.80
2022-08-22T12:28:20.501Z,24.80
2022-08-22T12:30:57.616Z,23.00
2022-08-22T12:33:54.319Z,27.40
2022-08-22T12:36:50.729Z,21.60
2022-08-22T12:39:45.590Z,20.50
2022-08-22T12:42:22.483Z,20.20
2022-08-22T12:45:23.273Z,17.90
2022-08-22T12:48:27.338Z,16.90
2022-08-22T12:51:04.101Z,17.60
2022-08-22T12:54:09.740Z,20.20
2022-08-22T12:56:55.522Z,16.30
2022-08-22T12:59:41.726Z,14.90
2022-08-22T13:02:17.966Z,17.10
2022-08-22T13:04:54.767Z,18.30
2022-08-22T13:07:29.158Z,17.60
2022-08-22T13:10:14.765Z,16.60
2022-08-22T13:12:48.785Z,16.60
2022-08-22T13:15:35.998Z,19.60
2022-08-22T13:18:29.304Z,17.10
2022-08-22T13:21:05.377Z,21.50
2022-08-22T13:23:43.433Z,17.90
2022-08-22T13:26:31.595Z,15.70
2022-08-22T13:32:02.004Z,15.20
2022-08-22T13:34:36.867Z,14.80
2022-08-22T13:37:28.810Z,14.50
2022-08-22T13:40:04.619Z,14.40
2022-08-22T13:42:43.437Z,14.20
2022-08-22T13:45:28.020Z,14.00
2022-08-22T13:48:03.770Z,14.60
2022-08-22T13:50:37.459Z,14.80
2022-08-22T13:53:34.653Z,17.40
2022-08-22T13:56:15.643Z,14.80
2022-08-22T13:58:49.050Z,15.10
2022-08-22T14:01:43.297Z,16.40
2022-08-22T14:04:32.125Z,14.90
2022-08-22T14:07:04.605Z,16.80
2022-08-22T14:09:53.037Z,15.60
2022-08-22T14:12:33.704Z,14.00
2022-08-22T14:15:45.006Z,17.20
2022-08-22T14:18:15.674Z,17.60
2022-08-22T14:20:47.701Z,19.70
2022-08-22T14:23:29.600Z,18.50
2022-08-22T14:25:57.889Z,19.40
2022-08-22T14:28:35.764Z,20.20
2022-08-22T14:31:13.787Z,20.30
2022-08-22T14:33:56.955Z,25.10
2022-08-22T14:36:55.065Z,21.60
2022-08-22T14:39:57.679Z,22.00
2022-08-22T14:42:38.389Z,22.60
2022-08-22T14:45:18.694Z,24.20
2022-08-22T14:48:29.857Z,27.30
2022-08-22T14:51:01.004Z,27.00
2022-08-22T14:53:34.836Z,30.50
2022-08-22T14:56:05.591Z,27.60
2022-08-22T14:58:37.624Z,19.70
2022-08-22T15:01:16.108Z,20.80
2022-08-22T15:03:54.097Z,23.20
2022-08-22T15:06:47.638Z,26.30
2022-08-22T15:09:49.206Z,28.20
2022-08-22T15:12:34.402Z,22.70
2022-08-22T15:15:09.447Z,22.60
2022-08-22T15:17:44.728Z,24.90
2022-08-22T15:20:49.058Z,23.40
2022-08-22T15:23:22.953Z,23.30
2022-08-22T15:26:01.324Z,20.70
2022-08-22T15:28:52.327Z,24.00
2022-08-22T15:31:22.407Z,28.60
2022-08-22T15:33:51.471Z,24.50
2022-08-22T15:36:27.322Z,21.50
2022-08-22T15:39:17.892Z,23.40
2022-08-22T15:41:48.456Z,23.00
2022-08-22T15:44:31.019Z,24.90
2022-08-22T15:47:10.633Z,24.00
2022-08-22T15:49:52.981Z,24.60
2022-08-22T15:53:08.870Z,28.90
2022-08-22T15:55:38.399Z,26.60
2022-08-22T15:58:24.847Z,24.30
2022-08-22T16:04:12.622Z,33.70
2022-08-22T16:07:19.429Z,35.60
2022-08-22T16:09:53.199Z,33.50
2022-08-22T16:12:26.980Z,33.60
2022-08-22T16:14:55.312Z,30.90
2022-08-22T16:17:31.560Z,32.80
2022-08-22T16:20:15.856Z,32.90
2022-08-22T16:22:56.670Z,38.50
2022-08-22T16:25:44.950Z,37.80
2022-08-22T16:28:56.215Z,41.00
2022-08-22T16:31:23.564Z,40.00
2022-08-22T16:33:51.653Z,41.80
2022-08-22T16:36:41.288Z,35.00
2022-08-22T16:39:31.463Z,33.60
2022-08-22T16:42:22.564Z,31.90
2022-08-22T16:45:35.233Z,28.00
2022-08-22T16:48:17.453Z,32.10
2022-08-22T16:51:01.807Z,31.90
2022-08-22T16:56:19.498Z,34.20
2022-08-22T16:59:03.330Z,34.90
2022-08-22T17:05:32.745Z,32.20
2022-08-22T17:08:15.818Z,31.30
2022-08-22T17:10:46.733Z,29.90
2022-08-22T17:13:48.489Z,24.00
2022-08-22T17:16:44.218Z,25.90
2022-08-22T17:19:31.327Z,27.70
2022-08-22T17:22:29.012Z,26.80
2022-08-22T17:25:18.178Z,25.80
2022-08-22T17:28:10.521Z,24.40
2022-08-22T17:30:53.483Z,26.50
2022-08-22T17:33:43.240Z,26.30
2022-08-22T17:36:27.208Z,19.00
2022-08-22T17:39:52.943Z,19.30
2022-08-22T17:42:29.785Z,19.20
2022-08-22T17:45:09.684Z,17.90
2022-08-22T17:47:49.308Z,28.30
2022-08-22T17:50:30.143Z,22.10
2022-08-22T17:53:09.580Z,29.10
2022-08-22T17:56:00.499Z,32.90
2022-08-22T17:58:43.233Z,32.20
2022-08-22T18:01:20.473Z,27.60
2022-08-22T18:03:59.955Z,25.50
2022-08-22T18:06:34.944Z,25.50
2022-08-22T18:09:16.787Z,28.70
2022-08-22T18:11:55.563Z,25.30
2022-08-22T18:14:45.891Z,28.80
2022-08-22T18:17:41.963Z,31.50
2022-08-22T18:20:13.602Z,24.20
2022-08-22T18:22:49.980Z,28.80
2022-08-22T18:25:18.204Z,29.90
2022-08-22T18:27:54.696Z,30.60
2022-08-22T18:30:28.261Z,30.40
2022-08-22T18:33:00.975Z,26.10
2022-08-22T18:35:39.355Z,21.20
2022-08-22T18:38:24.326Z,12.50
2022-08-22T18:41:11.255Z,10.90
2022-08-22T18:43:49.420Z,8.70
2022-08-22T18:46:39.118Z,6.50
2022-08-22T18:49:20.137Z,7.10
2022-08-22T18:52:27.077Z,5.90
2022-08-22T18:54:56.183Z,6.70
2022-08-22T18:57:40.330Z,6.60
2022-08-22T19:00:19.120Z,7.10
2022-08-22T19:03:21.198Z,7.00
2022-08-22T19:06:08.925Z,7.70
2022-08-22T19:09:14.544Z,8.30
2022-08-22T19:12:16.445Z,8.30
2022-08-22T19:15:06.502Z,7.50
2022-08-22T19:18:08.872Z,8.80
2022-08-22T19:20:59.096Z,8.40
2022-08-22T19:23:33.260Z,8.30
2022-08-22T19:26:34.178Z,9.40
2022-08-22T19:29:18.771Z,9.20
2022-08-22T19:31:53.699Z,9.80
2022-08-22T19:34:33.043Z,10.30
2022-08-22T19:37:32.771Z,10.20
2022-08-22T19:40:09.631Z,11.00
2022-08-22T19:42:43.966Z,11.70
2022-08-22T19:45:29.592Z,10.40
2022-08-22T19:48:13.116Z,11.50
2022-08-22T19:50:50.758Z,11.40
2022-08-22T19:53:31.880Z,10.80
2022-08-22T19:56:23.104Z,11.20
2022-08-22T19:59:10.011Z,10.90
2022-08-22T20:01:52.451Z,11.30
2022-08-22T20:04:59.639Z,12.60
2022-08-22T20:07:49.056Z,11.90
2022-08-22T20:10:28.540Z,12.60
2022-08-22T20:13:05.373Z,12.90
2022-08-22T20:16:14.085Z,11.00
2022-08-22T20:19:06.424Z,12.10
2022-08-22T20:21:59.347Z,11.50
2022-08-22T20:24:43.839Z,10.30
2022-08-22T20:27:24.414Z,11.10
2022-08-22T20:30:19.129Z,10.60
2022-08-22T20:32:54.379Z,10.90
2022-08-22T20:35:29.283Z,9.70
2022-08-22T20:38:06.726Z,10.60
2022-08-22T20:41:21.545Z,10.20
2022-08-22T20:43:55.634Z,9.70
2022-08-22T20:49:02.462Z,8.00
2022-08-22T20:51:33.959Z,7.30
2022-08-22T20:54:15.932Z,5.50
2022-08-22T20:56:56.167Z,5.30
2022-08-22T20:59:36.155Z,4.60
2022-08-22T21:02:21.586Z,4.20
2022-08-22T21:05:01.194Z,4.50
2022-08-22T21:07:33.824Z,4.80
2022-08-22T21:10:43.835Z,4.70
2022-08-22T21:13:25.925Z,4.00
2022-08-22T21:15:59.338Z,5.10
2022-08-22T21:18:36.214Z,4.70
2022-08-22T21:21:22.528Z,4.50
2022-08-22T21:24:06.365Z,4.50
2022-08-22T21:26:36.738Z,3.80
2022-08-22T21:29:22.612Z,4.80
2022-08-22T21:31:59.193Z,4.50
2022-08-22T21:34:44.633Z,4.20
2022-08-22T21:37:16.992Z,4.30
2022-08-22T21:39:50.349Z,3.40
2022-08-22T21:42:29.374Z,3.90
2022-08-22T21:45:00.987Z,4.20
2022-08-22T21:47:31.147Z,3.60
2022-08-22T21:50:05.567Z,4.30
2022-08-22T21:52:37.778Z,3.70
2022-08-22T21:55:16.913Z,4.10
2022-08-22T21:57:44.905Z,7.60
2022-08-22T22:00:48.632Z,4.40
2022-08-22T22:03:21.841Z,4.10
2022-08-22T22:05:52.969Z,4.00
2022-08-22T22:08:21.005Z,4.00
2022-08-22T22:10:50.932Z,3.80
2022-08-22T22:13:21.082Z,3.50
2022-08-22T22:15:52.969Z,4.30
2022-08-22T22:18:29.788Z,3.90
2022-08-22T22:20:58.304Z,4.00
2022-08-22T22:23:27.500Z,4.00
2022-08-22T22:25:58.305Z,3.90
2022-08-22T22:28:34.028Z,3.90
2022-08-22T22:31:03.720Z,3.70
2022-08-22T22:33:40.336Z,3.40
2022-08-22T22:36:12.761Z,3.80
2022-08-22T22:38:41.190Z,3.40
2022-08-22T22:41:09.137Z,3.10
2022-08-22T22:43:37.191Z,3.60
2022-08-22T22:46:06.630Z,3.70
2022-08-22T22:48:34.700Z,3.50
2022-08-22T22:51:12.385Z,3.40
2022-08-22T22:53:43.031Z,3.40
2022-08-22T22:56:16.634Z,3.60
2022-08-22T22:58:45.529Z,3.50
2022-08-22T23:01:21.889Z,3.60
2022-08-22T23:03:58.355Z,3.90
2022-08-22T23:06:29.453Z,4.10
2022-08-22T23:08:58.425Z,3.50
2022-08-22T23:11:31.003Z,3.40
2022-08-22T23:13:58.934Z,3.90
2022-08-22T23:16:28.836Z,3.40
2022-08-22T23:18:56.978Z,3.30
2022-08-22T23:21:30.166Z,3.20
2022-08-22T23:24:00.275Z,3.30
2022-08-22T23:26:29.156Z,3.80
2022-08-22T23:28:58.224Z,3.90
2022-08-22T23:31:37.613Z,7.70
2022-08-22T23:34:12.717Z,4.50
2022-08-22T23:36:50.504Z,5.20
2022-08-22T23:39:23.009Z,5.10
2022-08-22T23:41:51.328Z,5.20
2022-08-22T23:44:24.030Z,6.50
2022-08-22T23:46:52.827Z,6.90
2022-08-22T23:49:21.125Z,7.10
2022-08-22T23:51:49.979Z,7.40
2022-08-22T23:54:18.946Z,7.50
2022-08-22T23:56:57.242Z,7.20
2022-08-22T23:59:30.797Z,7.10
